createdAt,value
2022-08-24T00:00:37.482Z,101242.41
2022-08-24T00:03:04.772Z,101249.50
2022-08-24T00:05:31.994Z,101180.38
2022-08-24T00:07:59.245Z,101224.16
2022-08-24T00:10:26.728Z,101236.44
2022-08-24T00:12:53.836Z,101161.13
2022-08-24T00:15:21.300Z,101244.34
2022-08-24T00:17:48.458Z,101247.88
2022-08-24T00:20:15.547Z,101163.03
2022-08-24T00:22:43.702Z,101223.47
2022-08-24T00:25:13.076Z,101255.94
2022-08-24T00:27:41.970Z,101248.94
2022-08-24T00:30:12.928Z,101252.47
2022-08-24T00:32:40.078Z,101268.41
2022-08-24T00:35:08.389Z,101247.31
2022-08-24T00:40:07.387Z,101253.50
2022-08-24T00:42:34.752Z,101220.19
2022-08-24T00:45:02.037Z,101200.94
2022-08-24T00:47:40.005Z,101237.00
2022-08-24T00:50:11.644Z,101254.41
2022-08-24T00:53:09.830Z,101254.28
2022-08-24T00:55:50.331Z,101206.31
2022-08-24T00:58:35.777Z,101250.13
2022-08-24T01:01:06.639Z,101237.91
2022-08-24T01:03:36.429Z,101256.34
2022-08-24T01:06:04.538Z,101249.31
2022-08-24T01:08:31.698Z,101264.31
2022-08-24T01:11:03.806Z,101248.59
2022-08-24T01:13:33.677Z,101257.31
2022-08-24T01:16:05.552Z,101261.69
2022-08-24T01:18:52.230Z,101245.97
2022-08-24T01:21:51.790Z,101258.09
2022-08-24T01:24:19.215Z,101220.56
2022-08-24T01:26:50.401Z,101266.22
2022-08-24T01:29:23.740Z,101265.41
2022-08-24T01:31:51.636Z,101250.47
2022-08-24T01:34:18.863Z,101264.56
2022-08-24T01:36:49.700Z,101267.28
2022-08-24T01:39:22.375Z,101263.72
2022-08-24T01:41:50.210Z,101240.97
2022-08-24T01:44:18.937Z,101242.78
2022-08-24T01:46:49.130Z,101168.31
2022-08-24T01:49:17.011Z,101250.75
2022-08-24T01:51:46.449Z,101232.31
2022-08-24T01:54:15.109Z,101272.72
2022-08-24T01:56:43.021Z,101249.06
2022-08-24T01:59:12.664Z,101264.81
2022-08-24T02:01:52.845Z,101256.09
2022-08-24T02:04:20.495Z,101271.69
2022-08-24T02:06:48.952Z,101268.41
2022-08-24T02:09:17.468Z,101211.56
2022-08-24T02:11:44.950Z,101256.22
2022-08-24T02:14:14.552Z,101245.75
2022-08-24T02:16:42.408Z,101282.59
2022-08-24T02:19:09.860Z,101254.56
2022-08-24T02:21:38.828Z,101277.34
2022-08-24T02:24:07.611Z,101264.25
2022-08-24T02:26:35.100Z,101272.13
2022-08-24T02:29:03.756Z,101267.78
2022-08-24T02:31:32.505Z,101283.59
2022-08-24T02:34:00.340Z,101268.69
2022-08-24T02:36:27.708Z,101242.41
2022-08-24T02:38:58.580Z,101283.59
2022-08-24T02:41:26.591Z,101270.53
2022-08-24T02:43:56.038Z,101168.81
2022-08-24T02:46:26.947Z,101292.47
2022-08-24T02:49:03.610Z,101054.91
2022-08-24T02:51:44.995Z,101280.22
2022-08-24T02:54:19.729Z,101281.06
2022-08-24T02:56:49.932Z,101270.50
2022-08-24T02:59:18.028Z,101258.28
2022-08-24T03:01:46.395Z,101292.50
2022-08-24T03:04:18.717Z,101298.63
2022-08-24T03:06:46.034Z,101298.63
2022-08-24T03:09:14.079Z,101271.41
2022-08-24T03:11:42.691Z,101299.50
2022-08-24T03:14:14.273Z,101287.22
2022-08-24T03:16:42.503Z,101188.19
2022-08-24T03:19:09.684Z,101283.78
2022-08-24T03:21:38.529Z,101277.69
2022-08-24T03:24:06.427Z,101277.63
2022-08-24T03:26:33.753Z,101271.50
2022-08-24T03:29:01.263Z,101300.47
2022-08-24T03:31:30.435Z,101309.25
2022-08-24T03:33:58.902Z,101214.50
2022-08-24T03:36:26.590Z,101310.13
2022-08-24T03:38:54.510Z,101290.88
2022-08-24T03:41:21.637Z,101081.28
2022-08-24T03:43:49.391Z,101318.91
2022-08-24T03:46:25.232Z,101269.81
2022-08-24T03:48:54.740Z,101297.84
2022-08-24T03:51:27.360Z,101216.19
2022-08-24T03:53:56.102Z,101302.19
2022-08-24T03:56:26.851Z,101319.66
2022-08-24T03:58:55.329Z,101303.00
2022-08-24T04:01:25.388Z,101316.09
2022-08-24T04:03:55.391Z,101304.63
2022-08-24T04:06:27.262Z,101319.53
2022-08-24T04:08:54.896Z,101325.66
2022-08-24T04:11:25.183Z,101316.84
2022-08-24T04:13:56.730Z,101244.84
2022-08-24T04:16:26.098Z,101294.78
2022-08-24T04:19:02.607Z,101295.53
2022-08-24T04:21:35.299Z,101313.06
2022-08-24T04:24:07.796Z,101256.81
2022-08-24T04:26:44.705Z,101325.13
2022-08-24T04:29:17.298Z,101322.41
2022-08-24T04:31:50.414Z,101323.22
2022-08-24T04:34:18.685Z,101298.59
2022-08-24T04:36:46.708Z,101331.88
2022-08-24T04:39:15.066Z,101317.69
2022-08-24T04:42:05.366Z,101324.56
2022-08-24T04:44:37.644Z,101314.88
2022-08-24T04:47:05.705Z,101327.94
2022-08-24T04:49:33.461Z,101326.94
2022-08-24T04:52:01.537Z,101321.56
2022-08-24T04:54:29.280Z,101297.75
2022-08-24T04:57:12.493Z,101318.66
2022-08-24T04:59:41.906Z,101257.25
2022-08-24T05:02:09.115Z,101299.13
2022-08-24T05:04:37.569Z,101244.75
2022-08-24T05:07:05.695Z,101294.41
2022-08-24T05:09:33.639Z,101316.19
2022-08-24T05:12:02.060Z,101310.69
2022-08-24T05:14:34.068Z,101288.75
2022-08-24T05:17:03.002Z,101325.41
2022-08-24T05:19:31.610Z,101319.03
2022-08-24T05:22:00.856Z,101330.34
2022-08-24T05:24:30.268Z,101240.91
2022-08-24T05:26:58.157Z,101273.09
2022-08-24T05:29:26.422Z,101311.47
2022-08-24T05:31:54.165Z,101283.16
2022-08-24T05:34:21.336Z,101308.50
2022-08-24T05:36:49.080Z,101314.56
2022-08-24T05:39:46.042Z,101281.72
2022-08-24T05:42:13.905Z,101313.91
2022-08-24T05:44:46.943Z,101321.63
2022-08-24T05:47:18.306Z,101290.75
2022-08-24T05:49:48.202Z,101317.69
2022-08-24T05:52:16.154Z,101241.28
2022-08-24T05:54:44.679Z,101223.69
2022-08-24T05:57:16.340Z,101304.81
2022-08-24T05:59:54.728Z,101303.66
2022-08-24T06:02:23.798Z,101323.53
2022-08-24T06:04:51.803Z,101300.53
2022-08-24T06:07:20.075Z,101298.63
2022-08-24T06:09:54.365Z,101243.34
2022-08-24T06:12:21.651Z,101316.38
2022-08-24T06:14:48.950Z,101254.09
2022-08-24T06:17:21.055Z,101294.59
2022-08-24T06:19:48.245Z,101301.34
2022-08-24T06:22:15.420Z,101314.78
2022-08-24T06:25:01.198Z,101315.09
2022-08-24T06:27:29.234Z,101297.22
2022-08-24T06:30:06.475Z,101319.53
2022-08-24T06:32:53.496Z,101318.25
2022-08-24T06:35:38.150Z,101303.13
2022-08-24T06:38:06.548Z,101296.66
2022-08-24T06:40:34.418Z,101318.03
2022-08-24T06:43:04.122Z,101289.53
2022-08-24T06:45:47.823Z,101302.91
2022-08-24T06:48:18.387Z,101286.72
2022-08-24T06:50:47.352Z,101318.75
2022-08-24T06:53:15.152Z,101321.09
2022-08-24T06:56:01.102Z,101260.06
2022-08-24T06:58:32.533Z,101234.38
2022-08-24T07:01:25.089Z,101311.34
2022-08-24T07:03:53.937Z,101306.94
2022-08-24T07:06:54.356Z,101313.38
2022-08-24T07:09:25.049Z,101310.56
2022-08-24T07:11:52.699Z,101313.47
2022-08-24T07:14:21.754Z,101232.72
2022-08-24T07:16:49.924Z,101249.22
2022-08-24T07:19:17.759Z,101263.06
2022-08-24T07:21:44.853Z,101295.19
2022-08-24T07:24:11.930Z,101293.16
2022-08-24T07:26:40.467Z,101300.88
2022-08-24T07:29:36.783Z,101285.06
2022-08-24T07:32:04.630Z,101301.31
2022-08-24T07:34:37.650Z,101180.38
2022-08-24T07:37:07.999Z,101287.19
2022-08-24T07:39:38.646Z,101301.53
2022-08-24T07:42:13.378Z,101307.06
2022-08-24T07:44:42.261Z,101273.22
2022-08-24T07:47:36.397Z,101278.28
2022-08-24T07:49:57.475Z,101259.97
2022-08-24T07:52:28.447Z,101284.03
2022-08-24T07:54:56.471Z,101263.53
2022-08-24T07:57:24.064Z,101245.44
2022-08-24T07:59:51.184Z,101212.72
2022-08-24T08:02:18.873Z,101276.97
2022-08-24T08:04:50.074Z,101196.50
2022-08-24T08:07:18.855Z,101271.81
2022-08-24T08:09:52.597Z,101284.63
2022-08-24T08:12:20.058Z,101283.69
2022-08-24T08:14:57.861Z,101280.13
2022-08-24T08:17:25.339Z,101187.88
2022-08-24T08:19:52.654Z,101276.19
2022-08-24T08:22:46.265Z,101285.78
2022-08-24T08:25:40.353Z,101279.03
2022-08-24T08:28:25.273Z,101272.81
2022-08-24T08:31:02.435Z,101257.59
2022-08-24T08:33:30.842Z,101274.28
2022-08-24T08:36:11.670Z,101265.06
2022-08-24T08:38:44.594Z,101217.38
2022-08-24T08:41:17.886Z,101275.50
2022-08-24T08:47:52.198Z,101264.44
2022-08-24T08:50:29.692Z,101276.63
2022-08-24T08:53:00.254Z,101278.13
2022-08-24T08:55:53.263Z,101253.94
2022-08-24T08:58:57.563Z,101267.41
2022-08-24T09:02:04.778Z,101232.34
2022-08-24T09:04:54.557Z,101238.16
2022-08-24T09:08:07.134Z,101220.16
2022-08-24T09:11:14.405Z,101266.50
2022-08-24T09:13:47.941Z,101262.41
2022-08-24T09:16:41.206Z,101260.41
2022-08-24T09:19:31.890Z,101254.94
2022-08-24T09:22:20.963Z,101250.41
2022-08-24T09:24:55.303Z,101258.31
2022-08-24T09:27:53.904Z,101252.06
2022-08-24T09:30:27.544Z,101236.78
2022-08-24T09:33:06.304Z,101252.09
2022-08-24T09:35:51.918Z,101244.63
2022-08-24T09:38:50.874Z,101235.38
2022-08-24T09:41:53.967Z,101237.94
2022-08-24T09:44:55.400Z,101240.75
2022-08-24T09:47:25.392Z,101242.38
2022-08-24T09:50:23.421Z,101232.88
2022-08-24T09:53:28.147Z,101249.50
2022-08-24T09:56:13.354Z,101165.22
2022-08-24T09:58:59.231Z,101247.88
2022-08-24T10:01:32.578Z,101190.66
2022-08-24T10:04:38.934Z,101245.63
2022-08-24T10:07:23.191Z,101202.75
2022-08-24T10:10:24.253Z,101219.16
2022-08-24T10:13:09.080Z,101227.22
2022-08-24T10:15:59.131Z,101236.06
2022-08-24T10:18:47.262Z,101231.56
2022-08-24T10:21:20.724Z,101233.31
2022-08-24T10:23:50.400Z,101233.31
2022-08-24T10:26:40.068Z,101225.41
2022-08-24T10:29:28.704Z,101230.19
2022-08-24T10:32:04.880Z,101239.41
2022-08-24T10:34:49.602Z,101217.28
2022-08-24T10:37:45.481Z,101232.09
2022-08-24T10:40:34.804Z,101223.75
2022-08-24T10:43:27.369Z,101211.97
2022-08-24T10:46:10.243Z,101208.97
2022-08-24T10:49:12.208Z,101224.13
2022-08-24T10:51:50.496Z,101131.84
2022-08-24T10:54:19.967Z,101163.66
2022-08-24T10:57:12.250Z,101189.31
2022-08-24T11:00:18.204Z,101209.03
2022-08-24T11:03:14.277Z,101165.09
2022-08-24T11:05:52.803Z,101156.19
2022-08-24T11:08:25.771Z,101147.88
2022-08-24T11:11:14.874Z,101213.63
2022-08-24T11:13:59.215Z,101208.97
2022-08-24T11:16:32.883Z,101191.59
2022-08-24T11:19:03.990Z,101180.59
2022-08-24T11:21:45.279Z,101186.31
2022-08-24T11:24:18.469Z,101193.88
2022-08-24T11:26:59.415Z,101171.75
2022-08-24T11:29:47.763Z,101174.69
2022-08-24T11:32:51.528Z,101180.69
2022-08-24T11:35:33.599Z,101129.66
2022-08-24T11:38:20.456Z,101108.47
2022-08-24T11:41:03.684Z,101189.84
2022-08-24T11:43:43.050Z,101192.38
2022-08-24T11:46:51.604Z,101190.00
2022-08-24T11:49:58.993Z,101184.88
2022-08-24T11:52:25.927Z,101106.44
2022-08-24T11:55:05.363Z,101117.94
2022-08-24T11:57:48.111Z,101146.13
2022-08-24T12:00:21.444Z,101177.09
2022-08-24T12:03:22.156Z,101128.59
2022-08-24T12:06:19.123Z,101166.25
2022-08-24T12:08:55.141Z,101151.09
2022-08-24T12:11:45.248Z,101164.88
2022-08-24T12:14:32.077Z,101164.19
2022-08-24T12:17:21.732Z,101140.44
2022-08-24T12:19:53.351Z,101124.66
2022-08-24T12:22:22.235Z,101159.53
2022-08-24T12:24:55.700Z,101157.81
2022-08-24T12:27:27.397Z,101165.16
2022-08-24T12:30:15.486Z,101142.41
2022-08-24T12:32:58.060Z,101139.41
2022-08-24T12:35:31.983Z,101133.69
2022-08-24T12:38:22.202Z,101097.22
2022-08-24T12:41:17.931Z,101117.97
2022-08-24T12:44:01.336Z,101147.56
2022-08-24T12:46:28.670Z,101090.63
2022-08-24T12:49:19.492Z,101149.03
2022-08-24T12:52:18.807Z,101082.31
2022-08-24T12:55:13.699Z,101076.84
2022-08-24T12:58:31.622Z,101148.75
2022-08-24T13:01:06.415Z,101141.28
2022-08-24T13:03:35.873Z,101120.63
2022-08-24T13:06:09.186Z,101123.59
2022-08-24T13:08:46.994Z,101130.19
2022-08-24T13:11:33.435Z,101126.88
2022-08-24T13:14:12.790Z,101130.41
2022-08-24T13:16:58.255Z,101133.28
2022-08-24T13:19:34.253Z,101110.41
2022-08-24T13:22:10.222Z,101137.81
2022-08-24T13:24:40.329Z,101129.47
2022-08-24T13:27:13.421Z,101125.38
2022-08-24T13:30:33.668Z,101125.13
2022-08-24T13:33:08.948Z,101093.00
2022-08-24T13:35:41.965Z,101047.31
2022-08-24T13:38:24.181Z,101125.56
2022-08-24T13:41:03.876Z,101107.47
2022-08-24T13:43:39.541Z,101126.41
2022-08-24T13:46:45.137Z,101110.94
2022-08-24T13:49:15.246Z,101120.66
2022-08-24T13:51:45.095Z,101112.84
2022-08-24T13:54:30.339Z,101117.44
2022-08-24T13:57:08.379Z,101115.06
2022-08-24T13:59:35.588Z,101120.59
2022-08-24T14:02:14.705Z,101118.84
2022-08-24T14:04:56.466Z,101117.00
2022-08-24T14:07:53.198Z,101112.00
2022-08-24T14:10:42.421Z,101111.91
2022-08-24T14:14:01.239Z,101119.47
2022-08-24T14:16:55.928Z,101126.09
2022-08-24T14:19:25.661Z,101039.06
2022-08-24T14:22:18.040Z,101098.94
2022-08-24T14:24:55.128Z,101104.28
2022-08-24T14:27:40.164Z,101035.22
2022-08-24T14:30:19.387Z,101114.41
2022-08-24T14:33:01.685Z,101105.50
2022-08-24T14:35:34.436Z,101097.28
2022-08-24T14:38:12.932Z,101091.06
2022-08-24T14:40:51.897Z,101102.34
2022-08-24T14:43:39.230Z,101081.28
2022-08-24T14:46:06.550Z,101080.69
2022-08-24T14:48:39.893Z,101092.00
2022-08-24T14:51:29.348Z,101096.59
2022-08-24T14:54:05.485Z,101092.09
2022-08-24T14:57:07.185Z,101093.72
2022-08-24T15:00:14.381Z,101092.19
2022-08-24T15:03:15.694Z,100971.63
2022-08-24T15:06:25.643Z,101084.34
2022-08-24T15:08:53.366Z,101033.22
2022-08-24T15:11:28.751Z,101062.84
2022-08-24T15:14:02.263Z,101018.03
2022-08-24T15:16:49.001Z,101080.75
2022-08-24T15:19:34.732Z,101066.44
2022-08-24T15:22:04.028Z,101045.84
2022-08-24T15:24:48.215Z,101079.97
2022-08-24T15:27:47.357Z,101081.63
2022-08-24T15:30:27.527Z,100977.84
2022-08-24T15:33:14.117Z,101042.97
2022-08-24T15:35:45.349Z,101074.06
2022-08-24T15:38:24.950Z,101065.16
2022-08-24T15:41:04.353Z,101067.25
2022-08-24T15:43:32.670Z,101039.81
2022-08-24T15:46:00.442Z,101011.47
2022-08-24T15:48:28.412Z,101066.31
2022-08-24T15:50:56.779Z,101073.38
2022-08-24T15:53:39.141Z,101071.28
2022-08-24T15:56:21.381Z,101073.50
2022-08-24T15:58:50.399Z,101071.78
2022-08-24T16:01:36.136Z,101080.69
2022-08-24T16:04:15.795Z,101081.59
2022-08-24T16:06:46.209Z,101074.34
2022-08-24T16:09:19.745Z,101075.09
2022-08-24T16:12:23.483Z,101022.34
2022-08-24T16:15:11.021Z,101067.28
2022-08-24T16:17:42.549Z,101065.00
2022-08-24T16:20:17.905Z,100864.25
2022-08-24T16:23:00.340Z,101055.81
2022-08-24T16:25:50.495Z,101083.69
2022-08-24T16:28:23.782Z,101067.78
2022-08-24T16:30:57.687Z,101055.78
2022-08-24T16:33:30.660Z,101066.41
2022-08-24T16:35:59.398Z,101073.72
2022-08-24T16:38:28.103Z,101080.19
2022-08-24T16:40:58.615Z,101069.84
2022-08-24T16:43:26.944Z,101079.16
2022-08-24T16:45:55.367Z,101092.16
2022-08-24T16:48:22.569Z,101018.31
2022-08-24T16:50:51.154Z,101082.06
2022-08-24T16:53:21.758Z,101076.16
2022-08-24T16:55:49.040Z,101026.03
2022-08-24T16:58:17.190Z,101058.25
2022-08-24T17:00:46.057Z,101088.38
2022-08-24T17:03:15.237Z,101044.13
2022-08-24T17:05:43.871Z,100990.25
2022-08-24T17:08:12.839Z,101065.38
2022-08-24T17:10:40.405Z,101004.75
2022-08-24T17:13:07.951Z,101092.78
2022-08-24T17:15:36.389Z,101101.03
2022-08-24T17:18:06.574Z,101029.03
2022-08-24T17:20:34.594Z,101029.25
2022-08-24T17:23:01.700Z,101031.97
2022-08-24T17:25:30.343Z,101099.38
2022-08-24T17:27:58.780Z,101105.63
2022-08-24T17:30:30.081Z,101103.19
2022-08-24T17:32:58.939Z,101072.00
2022-08-24T17:35:26.161Z,100993.59
2022-08-24T17:37:54.011Z,101084.66
2022-08-24T17:40:24.326Z,101011.59
2022-08-24T17:42:52.028Z,101113.75
2022-08-24T17:45:21.417Z,100979.75
2022-08-24T17:47:49.388Z,101107.88
2022-08-24T17:50:19.359Z,101012.13
2022-08-24T17:52:46.956Z,101094.34
2022-08-24T17:55:17.201Z,101100.53
2022-08-24T17:57:51.681Z,101069.31
2022-08-24T18:00:18.976Z,101068.81
2022-08-24T18:02:46.055Z,101003.50
2022-08-24T18:05:14.669Z,101103.06
2022-08-24T18:07:53.437Z,101088.41
2022-08-24T18:10:25.616Z,101086.84
2022-08-24T18:12:53.263Z,101092.13
2022-08-24T18:15:21.301Z,101113.44
2022-08-24T18:17:53.494Z,101091.88
2022-08-24T18:20:25.705Z,101108.34
2022-08-24T18:23:04.789Z,101103.16
2022-08-24T18:25:36.232Z,101070.22
2022-08-24T18:28:03.713Z,101084.16
2022-08-24T18:30:32.365Z,101105.28
2022-08-24T18:33:01.979Z,101076.66
2022-08-24T18:35:30.910Z,101104.69
2022-08-24T18:37:57.972Z,101066.31
2022-08-24T18:40:26.873Z,101079.44
2022-08-24T18:43:01.884Z,101091.81
2022-08-24T18:45:31.935Z,101109.59
2022-08-24T18:47:59.275Z,101070.13
2022-08-24T18:50:29.047Z,101098.25
2022-08-24T18:52:58.405Z,101055.63
2022-08-24T18:55:26.873Z,101103.81
2022-08-24T18:57:54.382Z,101095.97
2022-08-24T19:00:21.667Z,101106.75
2022-08-24T19:02:49.597Z,101091.13
2022-08-24T19:05:22.938Z,101099.09
2022-08-24T19:07:54.654Z,101049.47
2022-08-24T19:10:24.953Z,101096.75
2022-08-24T19:13:02.349Z,101093.19
2022-08-24T19:15:39.454Z,101003.59
2022-08-24T19:18:11.268Z,101080.56
2022-08-24T19:20:47.935Z,101107.63
2022-08-24T19:23:26.036Z,101078.81
2022-08-24T19:25:54.742Z,101067.59
2022-08-24T19:28:23.559Z,101075.66
2022-08-24T19:30:54.507Z,101098.41
2022-08-24T19:33:27.019Z,101101.22
2022-08-24T19:35:54.645Z,101114.38
2022-08-24T19:38:25.441Z,101068.09
2022-08-24T19:40:55.544Z,101109.25
2022-08-24T19:43:29.358Z,101101.53
2022-08-24T19:46:06.421Z,101092.91
2022-08-24T19:48:36.214Z,101098.34
2022-08-24T19:51:05.889Z,101037.31
2022-08-24T19:53:36.530Z,101115.16
2022-08-24T19:56:05.482Z,101089.84
2022-08-24T19:58:46.515Z,101118.69
2022-08-24T20:01:19.415Z,101111.06
2022-08-24T20:03:46.638Z,101112.75
2022-08-24T20:06:15.025Z,101118.16
2022-08-24T20:08:42.194Z,101115.59
2022-08-24T20:11:10.086Z,101102.63
2022-08-24T20:13:56.947Z,101122.81
2022-08-24T20:16:29.027Z,101112.38
2022-08-24T20:18:56.250Z,101073.09
2022-08-24T20:21:31.739Z,101091.44
2022-08-24T20:24:02.913Z,101113.47
2022-08-24T20:26:35.080Z,101030.59
2022-08-24T20:29:02.245Z,101041.13
2022-08-24T20:31:29.663Z,101132.97
2022-08-24T20:33:57.579Z,101099.78
2022-08-24T20:36:34.688Z,101087.59
2022-08-24T20:39:03.996Z,101125.25
2022-08-24T20:41:32.016Z,101098.22
2022-08-24T20:43:59.842Z,100922.59
2022-08-24T20:46:27.940Z,101108.75
2022-08-24T20:49:44.780Z,101092.16
2022-08-24T20:52:07.776Z,101083.69
2022-08-24T20:54:39.478Z,101133.69
2022-08-24T20:57:14.914Z,101040.06
2022-08-24T20:59:41.994Z,101023.53
2022-08-24T21:02:09.203Z,101111.97
2022-08-24T21:04:36.234Z,101131.28
2022-08-24T21:07:03.511Z,101128.66
2022-08-24T21:09:30.514Z,101134.94
2022-08-24T21:11:57.512Z,101088.56
2022-08-24T21:14:24.667Z,101086.84
2022-08-24T21:16:59.049Z,101116.69
2022-08-24T21:19:26.133Z,101104.50
2022-08-24T21:21:53.212Z,101138.72
2022-08-24T21:24:20.292Z,101136.16
2022-08-24T21:26:47.645Z,101129.94
2022-08-24T21:29:14.837Z,101096.00
2022-08-24T21:32:01.832Z,101103.03
2022-08-24T21:34:40.952Z,101014.00
2022-08-24T21:37:13.572Z,101135.41
2022-08-24T21:39:40.590Z,101072.63
2022-08-24T21:42:08.538Z,101129.34
2022-08-24T21:44:36.532Z,101114.56
2022-08-24T21:47:05.942Z,101075.09
2022-08-24T21:49:33.627Z,101133.81
2022-08-24T21:52:01.052Z,101102.25
2022-08-24T21:54:28.039Z,101099.72
2022-08-24T21:56:55.273Z,101014.94
2022-08-24T21:59:22.322Z,101110.22
2022-08-24T22:01:49.583Z,101113.75
2022-08-24T22:04:16.566Z,101085.84
2022-08-24T22:09:10.438Z,101066.63
2022-08-24T22:11:37.495Z,101108.59
2022-08-24T22:14:04.602Z,101106.16
2022-08-24T22:16:31.880Z,101027.41
2022-08-24T22:19:01.002Z,101119.19
2022-08-24T22:21:31.138Z,101128.16
2022-08-24T22:24:03.602Z,101023.91
2022-08-24T22:26:30.748Z,101112.25
2022-08-24T22:28:59.315Z,101030.00
2022-08-24T22:31:29.254Z,101124.56
2022-08-24T22:33:58.618Z,101037.19
2022-08-24T22:36:27.659Z,101125.53
2022-08-24T22:38:56.303Z,101122.00
2022-08-24T22:41:24.011Z,101111.53
2022-08-24T22:44:10.053Z,101096.69
2022-08-24T22:46:37.407Z,101001.34
2022-08-24T22:49:06.044Z,101025.06
2022-08-24T22:51:33.657Z,101019.00
2022-08-24T22:54:01.045Z,101117.81
2022-08-24T22:56:35.304Z,101123.97
2022-08-24T22:59:02.835Z,101110.94
2022-08-24T23:01:35.120Z,101031.44
2022-08-24T23:04:06.399Z,101125.97
2022-08-24T23:06:33.452Z,101035.03
2022-08-24T23:09:00.811Z,101028.09
2022-08-24T23:11:28.193Z,101112.97
2022-08-24T23:13:57.733Z,101100.09
2022-08-24T23:16:27.315Z,101100.97
2022-08-24T23:19:13.983Z,101115.13
2022-08-24T23:21:42.051Z,101113.38
2022-08-24T23:24:10.575Z,101117.78
2022-08-24T23:26:42.238Z,101038.19
2022-08-24T23:29:11.321Z,100981.22
2022-08-24T23:31:38.856Z,101109.84
2022-08-24T23:34:08.064Z,101100.28
2022-08-24T23:36:36.424Z,101084.53
2022-08-24T23:39:05.900Z,101117.81
2022-08-24T23:41:35.742Z,101081.03
2022-08-24T23:44:10.576Z,101113.47
2022-08-24T23:46:38.406Z,101073.16
2022-08-24T23:49:06.622Z,101114.38
2022-08-24T23:51:34.042Z,101031.22
2022-08-24T23:54:01.134Z,101102.22
2022-08-24T23:56:32.117Z,101079.47
2022-08-24T23:59:01.707Z,101088.25
